Portscatho, United Kingdom
Current Conditions -  °F | °C
As of 8:50 PM on Tuesday 21 Oct 2014 (Local Time) from EGDR Reporting Station
Few Clouds Few Clouds  
Wind Chill: 54°   Ceiling: Unl
Heat Index: 54°   Visibility: 6mi
Dew Point: 39°   Wind: 21mph
Humidity: 58%   Direction: 310°NW
Pressure: 30.27"   Gusts: 37mph
Location:  50.17°N, 4.97°W
Report Text: EGDR 211950Z 31018G32KT 9999 FEW024 12/04 Q1025 BLU TEMPO 8000 -SHRA SCT020 WHT
Loading
Personal Weather Stations






























Interactive Weather Map New forecast layout! Learn more

10-Day Weather Forecast

Advertisements
Track Severe Weather on mobile